Time;durP1;ratioP1;P1;durP2;ratioP2;P2;SDS_P1;SDS_P2;PMS_P1;PMS_P2;Temp;Humidity;BMP_temperature;BMP_pressure;BME280_temperature;BME280_humidity;BME280_pressure;Samples;Min_cycle;Max_cycle;Signal;HPM_P1;HPM_P2
2021/12/15 00:01:13;;;;;;;36.38;21.52;;;;;;;13.65;68.76;102016.28;4954586;28;123155;-80
2021/12/15 00:03:39;;;;;;;39.35;20.65;;;;;;;13.66;67.91;102006.78;4967672;28;119946;-79
2021/12/15 00:06:12;;;;;;;35.08;20.48;;;;;;;13.63;67.53;102000.16;4941437;28;122955;-80
2021/12/15 00:08:39;;;;;;;37.83;20.83;;;;;;;13.64;67.65;102018.25;4952980;28;119928;-79
2021/12/15 00:11:06;;;;;;;38.72;20.30;;;;;;;13.64;68.13;102029.28;4967426;28;119909;-79
2021/12/15 00:13:37;;;;;;;30.48;18.02;;;;;;;13.64;68.84;102014.72;4948169;28;123379;-79
2021/12/15 00:16:04;;;;;;;31.23;17.73;;;;;;;13.73;69.09;102014.88;4954527;28;119743;-79
2021/12/15 00:18:30;;;;;;;30.30;17.98;;;;;;;13.70;68.38;102012.97;4960479;28;120004;-79
2021/12/15 00:20:56;;;;;;;28.50;16.55;;;;;;;13.72;68.22;102013.28;4956250;28;123236;-80
2021/12/15 00:23:22;;;;;;;34.63;18.00;;;;;;;13.74;68.62;102017.19;4972850;28;119765;-79
2021/12/15 00:25:48;;;;;;;31.77;18.77;;;;;;;13.76;67.38;102020.28;4951460;28;123695;-79
2021/12/15 00:28:15;;;;;;;36.25;19.00;;;;;;;13.75;68.73;102009.69;4968440;28;120039;-79
2021/12/15 00:30:40;;;;;;;30.02;18.30;;;;;;;13.70;67.95;102004.69;4956577;28;122037;-80
2021/12/15 00:33:07;;;;;;;37.65;17.08;;;;;;;13.75;68.45;102006.94;4972337;28;121721;-79
2021/12/15 00:35:36;;;;;;;32.97;17.98;;;;;;;13.79;67.64;102013.88;4953396;28;120197;-79
2021/12/15 00:38:04;;;;;;;36.17;18.58;;;;;;;13.78;67.49;102000.53;4984428;28;119810;-79
2021/12/15 00:40:30;;;;;;;34.65;19.92;;;;;;;13.75;67.71;101998.66;4957173;28;120743;-79
2021/12/15 00:42:58;;;;;;;33.92;19.65;;;;;;;13.67;67.80;101978.78;4955533;28;120137;-79
2021/12/15 00:45:24;;;;;;;37.00;18.23;;;;;;;13.83;68.14;101997.22;4979040;28;122254;-79
2021/12/15 00:47:52;;;;;;;30.30;18.60;;;;;;;13.83;67.73;101997.22;4958404;28;119673;-79
2021/12/15 00:50:20;;;;;;;32.00;17.65;;;;;;;13.84;68.47;102004.28;4961226;28;122198;-79
2021/12/15 00:52:49;;;;;;;35.08;18.65;;;;;;;13.82;67.38;102001.97;4956087;28;121869;-79
2021/12/15 00:55:19;;;;;;;28.60;16.85;;;;;;;13.89;68.61;102006.47;4952129;28;120859;-79
2021/12/15 00:57:46;;;;;;;36.03;18.45;;;;;;;13.93;68.04;102004.38;4973772;28;120138;-79
2021/12/15 01:00:21;;;;;;;32.17;17.58;;;;;;;13.94;67.83;101996.88;4940785;28;122429;-79
2021/12/15 01:02:49;;;;;;;29.02;16.20;;;;;;;13.95;68.22;101998.41;4973793;28;119988;-79
2021/12/15 01:05:19;;;;;;;28.35;15.27;;;;;;;13.94;67.83;102005.91;4951071;28;122209;-79
2021/12/15 01:07:47;;;;;;;26.27;16.15;;;;;;;13.90;68.02;101980.44;4972733;28;121241;-79
2021/12/15 01:10:18;;;;;;;29.35;16.10;;;;;;;13.99;67.51;102002.63;4949531;28;122875;-79
2021/12/15 01:21:01;;;;;;;24.50;13.60;;;;;;;14.02;67.23;101992.69;4952228;28;122801;-79
2021/12/15 01:23:30;;;;;;;28.60;14.13;;;;;;;13.98;66.51;101997.56;4982803;28;119917;-79
2021/12/15 01:26:00;;;;;;;29.40;14.07;;;;;;;14.02;66.64;101993.47;4948487;28;123030;-79
2021/12/15 01:28:27;;;;;;;26.35;13.00;;;;;;;14.00;67.17;101995.91;4937406;28;122669;-79
2021/12/15 01:30:54;;;;;;;28.85;13.68;;;;;;;13.98;66.79;101981.00;4976050;28;119533;-79
2021/12/15 01:33:22;;;;;;;29.58;13.45;;;;;;;14.04;67.19;102002.06;4950574;28;123848;-80
2021/12/15 01:35:50;;;;;;;26.85;13.43;;;;;;;14.00;67.00;101989.59;4933086;28;121286;-80
2021/12/15 01:38:24;;;;;;;27.58;12.02;;;;;;;14.07;67.24;101994.91;4935904;28;124709;-80
2021/12/15 01:40:51;;;;;;;25.60;12.73;;;;;;;14.09;66.94;101995.22;4957397;28;123112;-80
2021/12/15 01:43:34;;;;;;;23.48;11.77;;;;;;;14.10;67.09;102005.81;4951273;28;119845;-79
2021/12/15 01:48:57;;;;;;;24.98;12.10;;;;;;;14.09;67.04;102000.75;4949010;28;123827;-79
2021/12/15 01:51:23;;;;;;;23.65;11.68;;;;;;;14.05;67.34;101984.31;4973251;28;120026;-79
2021/12/15 01:53:49;;;;;;;24.00;11.23;;;;;;;14.09;67.03;101981.44;4934079;28;122755;-79
2021/12/15 01:56:18;;;;;;;28.27;11.40;;;;;;;14.05;66.59;101969.72;4952305;28;119632;-79
2021/12/15 01:58:44;;;;;;;24.13;11.15;;;;;;;14.11;66.32;101979.00;4968869;28;119956;-80
2021/12/15 02:01:10;;;;;;;28.85;11.90;;;;;;;14.11;66.20;101987.28;4954361;28;122949;-79
2021/12/15 02:03:37;;;;;;;24.35;12.15;;;;;;;14.08;67.48;101990.91;4936579;28;119715;-79
2021/12/15 02:06:05;;;;;;;27.45;13.20;;;;;;;14.04;67.11;101982.75;4952281;28;123148;-79
2021/12/15 02:08:31;;;;;;;27.17;12.80;;;;;;;14.05;66.62;101991.81;4967045;28;119938;-79
2021/12/15 02:10:57;;;;;;;25.35;12.18;;;;;;;13.91;67.88;101973.72;4949215;28;120071;-79
2021/12/15 02:13:23;;;;;;;27.10;12.68;;;;;;;13.98;66.68;101986.53;4971036;28;119788;-79
2021/12/15 02:15:53;;;;;;;25.38;13.15;;;;;;;13.99;67.10;101994.34;4948671;28;119757;-79
2021/12/15 02:18:21;;;;;;;26.58;12.73;;;;;;;14.00;67.19;101992.38;4969196;28;120935;-79
2021/12/15 02:20:56;;;;;;;31.58;13.85;;;;;;;13.98;66.87;101987.28;4933970;28;123772;-79
2021/12/15 02:23:33;;;;;;;26.33;13.80;;;;;;;13.90;66.69;101977.69;4952288;28;119819;-79
2021/12/15 02:26:08;;;;;;;33.03;13.43;;;;;;;13.95;67.22;101979.88;4929214;28;122126;-79
2021/12/15 02:28:36;;;;;;;26.67;13.27;;;;;;;13.94;67.50;101977.56;4935370;28;121311;-80
2021/12/15 02:31:30;;;;;;;;;;;;;;;;;;;;;
2021/12/15 02:39:07;;;;;;;30.00;14.13;;;;;;;14.14;68.42;101992.66;4951732;28;121839;-79
2021/12/15 02:41:37;;;;;;;25.55;13.38;;;;;;;14.14;68.54;101976.13;4950239;28;121384;-79
2021/12/15 02:44:13;;;;;;;30.73;14.98;;;;;;;14.16;67.65;101975.66;4966122;28;119647;-79
2021/12/15 02:46:40;;;;;;;31.25;15.30;;;;;;;14.19;67.92;101974.00;4966931;28;119970;-79
2021/12/15 02:49:08;;;;;;;37.67;16.88;;;;;;;14.28;68.31;101988.69;4949585;28;121402;-79
2021/12/15 02:51:36;;;;;;;31.67;16.13;;;;;;;14.29;67.41;101997.75;4949707;28;120115;-80
2021/12/15 02:54:03;;;;;;;33.65;15.45;;;;;;;14.23;68.88;101982.97;4951654;28;122237;-79
2021/12/15 02:56:33;;;;;;;34.40;16.15;;;;;;;14.32;68.71;101988.56;4951008;28;123403;-79
2021/12/15 02:59:03;;;;;;;27.48;16.05;;;;;;;14.32;68.55;101980.28;4973331;28;120096;-79
2021/12/15 03:01:50;;;;;;;;;;;;;;;;;;;;;
2021/12/15 03:15:30;;;;;;;36.15;17.30;;;;;;;14.45;67.12;101989.34;4949098;28;121985;-79
2021/12/15 03:17:55;;;;;;;35.13;16.35;;;;;;;14.43;67.84;101989.00;4951344;28;121437;-79
2021/12/15 03:20:22;;;;;;;35.67;18.45;;;;;;;14.40;67.39;101978.84;4965452;28;119923;-80
2021/12/15 03:22:50;;;;;;;38.75;19.02;;;;;;;14.46;67.12;101971.56;4951358;28;122173;-79
2021/12/15 03:25:16;;;;;;;34.25;16.58;;;;;;;14.41;68.10;101969.31;4946142;28;119902;-80
2021/12/15 03:33:29;;;;;;;30.40;17.60;;;;;;;14.49;68.31;101970.69;4970166;28;120020;-79
2021/12/15 03:36:24;;;;;;;33.00;17.73;;;;;;;14.49;67.98;101969.91;4946643;28;122523;-79
2021/12/15 03:38:42;;;;;;;35.35;18.75;;;;;;;14.54;67.42;101978.38;4952034;28;122713;-80
2021/12/15 03:41:10;;;;;;;36.42;19.80;;;;;;;14.52;67.53;101986.34;4963744;28;120559;-79
2021/12/15 03:43:37;;;;;;;34.15;20.17;;;;;;;14.50;67.93;101974.97;4941979;28;121870;-79
2021/12/15 03:46:09;;;;;;;39.00;20.00;;;;;;;14.52;67.97;101978.06;4966326;28;119870;-79
2021/12/15 03:48:38;;;;;;;40.38;20.88;;;;;;;14.53;67.78;101987.13;4937564;28;122177;-79
2021/12/15 03:51:04;;;;;;;36.75;19.95;;;;;;;14.52;67.96;101978.06;4950670;28;122855;-79
2021/12/15 03:53:33;;;;;;;37.05;19.15;;;;;;;14.53;68.00;101971.31;4968887;28;119752;-80
2021/12/15 03:56:02;;;;;;;43.05;21.60;;;;;;;14.52;67.73;101969.78;4950136;28;122150;-79
2021/12/15 03:58:28;;;;;;;39.78;21.85;;;;;;;14.53;67.35;101971.31;4953055;28;123372;-79
2021/12/15 04:01:05;;;;;;;38.42;19.73;;;;;;;14.54;68.53;101975.63;4970783;28;121081;-79
2021/12/15 04:03:47;;;;;;;42.65;20.70;;;;;;;14.56;68.21;101964.91;4936338;28;122297;-79
2021/12/15 04:06:21;;;;;;;40.95;22.25;;;;;;;14.57;67.61;101971.19;4968454;28;120015;-79
2021/12/15 04:08:48;;;;;;;43.50;21.77;;;;;;;14.57;68.41;101971.19;4971713;28;119800;-79
2021/12/15 04:11:17;;;;;;;42.30;21.75;;;;;;;14.53;68.19;101962.28;4960337;28;122949;-79
2021/12/15 04:13:49;;;;;;;47.30;23.05;;;;;;;14.58;67.83;101973.50;4932940;28;120038;-79
2021/12/15 04:16:59;;;;;;;42.15;22.83;;;;;;;14.55;68.69;101957.06;4963525;28;120103;-79
2021/12/15 04:19:19;;;;;;;42.30;21.88;;;;;;;14.62;68.37;101963.13;4940985;28;124103;-79
2021/12/15 04:21:48;;;;;;;42.97;23.38;;;;;;;14.63;67.74;101956.38;4942968;28;119842;-80
2021/12/15 04:24:26;;;;;;;39.20;21.33;;;;;;;14.58;68.20;101950.66;4954571;28;120591;-79
2021/12/15 04:26:53;;;;;;;41.08;21.35;;;;;;;14.52;68.64;101944.94;4932900;28;122862;-79
2021/12/15 04:29:19;;;;;;;45.50;21.75;;;;;;;14.63;69.03;101950.84;4974330;28;120000;-79
2021/12/15 04:31:58;;;;;;;40.67;21.98;;;;;;;14.69;68.43;101951.06;4931260;28;123308;-79
2021/12/15 04:34:24;;;;;;;39.33;22.00;;;;;;;14.69;67.75;101951.06;4967032;28;120093;-79
2021/12/15 04:36:54;;;;;;;39.60;21.17;;;;;;;14.62;67.67;101946.53;4968801;28;119705;-79
2021/12/15 04:39:25;;;;;;;42.05;21.75;;;;;;;14.70;67.53;101960.91;4953197;28;121270;-79
2021/12/15 04:41:52;;;;;;;41.50;21.35;;;;;;;14.68;67.61;101964.09;4943546;28;124603;-78
2021/12/15 04:44:21;;;;;;;44.33;22.23;;;;;;;14.69;68.04;101973.16;4954523;28;119957;-80
2021/12/15 04:46:58;;;;;;;42.05;22.55;;;;;;;14.71;68.59;101977.03;4952729;28;120869;-79
2021/12/15 04:49:25;;;;;;;38.17;21.30;;;;;;;14.72;68.37;101984.09;4972457;28;120052;-79
2021/12/15 04:51:51;;;;;;;41.80;22.45;;;;;;;14.69;68.22;101982.22;4957616;28;122613;-79
2021/12/15 04:54:19;;;;;;;37.67;21.17;;;;;;;14.64;68.66;101971.72;4937451;28;119832;-79
2021/12/15 04:56:45;;;;;;;41.33;22.85;;;;;;;14.59;67.84;101966.78;4945244;28;122141;-79
2021/12/15 04:59:12;;;;;;;37.42;20.83;;;;;;;14.66;68.74;101988.59;4968248;28;120596;-79
2021/12/15 05:01:38;;;;;;;37.97;21.88;;;;;;;14.63;68.31;101980.44;4946057;28;120004;-79
2021/12/15 05:04:04;;;;;;;40.05;20.40;;;;;;;14.66;68.20;101974.81;4966243;28;122692;-79
2021/12/15 05:06:30;;;;;;;36.90;20.60;;;;;;;14.66;67.78;101977.56;4944333;28;123009;-80
2021/12/15 05:08:55;;;;;;;42.00;21.83;;;;;;;14.61;67.93;101977.38;4954295;28;120458;-79
2021/12/15 05:11:24;;;;;;;38.40;21.25;;;;;;;14.62;68.39;101967.88;4950713;28;122448;-80
2021/12/15 05:13:53;;;;;;;43.20;20.38;;;;;;;14.61;68.59;101975.38;4975179;28;120004;-80
2021/12/15 05:16:18;;;;;;;42.88;19.73;;;;;;;14.64;67.73;101980.00;4951503;28;123022;-79
2021/12/15 05:18:44;;;;;;;40.13;21.30;;;;;;;14.62;68.03;101968.63;4936921;28;122939;-79
2021/12/15 05:21:11;;;;;;;40.42;20.92;;;;;;;14.62;68.37;101979.69;4934931;28;119895;-79
2021/12/15 05:23:44;;;;;;;36.53;21.27;;;;;;;14.66;68.05;101977.56;4966333;28;119612;-79
2021/12/15 05:26:10;;;;;;;36.70;19.45;;;;;;;14.71;68.95;101999.13;4949675;28;123028;-79
2021/12/15 05:28:42;;;;;;;41.50;21.30;;;;;;;14.70;68.28;101997.56;4952506;28;119619;-79
2021/12/15 05:31:08;;;;;;;41.42;21.90;;;;;;;14.70;68.46;102003.09;4971780;28;120181;-79
2021/12/15 05:33:33;;;;;;;44.67;21.83;;;;;;;14.72;67.55;102006.19;4952451;28;121084;-79
2021/12/15 05:35:59;;;;;;;44.70;21.90;;;;;;;14.71;68.04;102004.63;4955119;28;119787;-79
2021/12/15 05:38:25;;;;;;;44.05;21.13;;;;;;;14.69;68.26;102004.31;4953022;28;120558;-79
2021/12/15 05:40:52;;;;;;;38.63;19.52;;;;;;;14.73;68.71;102002.19;4954407;28;119666;-80
2021/12/15 05:43:18;;;;;;;43.05;21.38;;;;;;;14.72;68.17;101997.13;4933598;28;121930;-80
2021/12/15 05:45:45;;;;;;;41.75;19.70;;;;;;;14.79;68.54;102004.38;4968089;28;122756;-79
2021/12/15 05:48:14;;;;;;;43.83;20.08;;;;;;;14.77;67.90;102006.81;4953985;28;119824;-79
2021/12/15 05:50:43;;;;;;;42.42;20.65;;;;;;;14.76;67.77;102011.56;4967818;28;122444;-79
2021/12/15 05:53:09;;;;;;;43.78;20.30;;;;;;;14.73;68.11;101996.66;4956621;28;120371;-79
2021/12/15 05:55:35;;;;;;;47.05;21.08;;;;;;;14.74;67.90;102003.75;4978901;28;119652;-79
2021/12/15 05:58:02;;;;;;;39.13;19.25;;;;;;;14.66;68.58;101991.38;4952452;28;122889;-79
2021/12/15 06:00:33;;;;;;;44.67;20.23;;;;;;;14.68;68.59;101980.69;4952648;28;119969;-79
2021/12/15 06:02:59;;;;;;;40.83;19.33;;;;;;;14.73;68.45;101991.16;4946653;28;122477;-79
2021/12/15 06:05:26;;;;;;;39.55;19.35;;;;;;;14.70;67.92;101997.56;4935244;28;122499;-79
2021/12/15 06:07:52;;;;;;;37.45;18.90;;;;;;;14.76;67.52;102005.28;4951874;28;120159;-79
2021/12/15 06:10:24;;;;;;;41.10;19.15;;;;;;;14.78;68.38;102011.13;4950065;28;122353;-79
2021/12/15 06:12:51;;;;;;;37.22;19.67;;;;;;;14.80;68.03;102016.97;4962198;28;120081;-79
2021/12/15 06:15:23;;;;;;;36.80;17.23;;;;;;;14.81;68.47;102010.22;4957461;28;119834;-79
2021/12/15 06:17:52;;;;;;;41.90;18.27;;;;;;;14.76;68.03;102008.81;4953847;28;122717;-79
2021/12/15 06:20:18;;;;;;;36.80;17.75;;;;;;;14.82;67.51;102025.59;4948235;28;119702;-79
2021/12/15 06:22:45;;;;;;;39.80;18.48;;;;;;;14.81;67.47;102029.56;4968698;28;122548;-79
2021/12/15 06:25:12;;;;;;;36.72;17.92;;;;;;;14.74;67.73;102025.84;4972016;28;119937;-80
2021/12/15 06:27:40;;;;;;;33.83;18.02;;;;;;;14.85;68.27;102042.03;4967220;28;120018;-80
2021/12/15 06:30:07;;;;;;;39.30;18.15;;;;;;;14.84;67.20;102048.78;4967942;28;122449;-81
2021/12/15 06:32:33;;;;;;;41.55;17.90;;;;;;;14.85;67.09;102047.56;4966243;28;120768;-80
2021/12/15 06:34:59;;;;;;;38.75;17.00;;;;;;;14.79;66.92;102048.59;4952159;28;119575;-79
2021/12/15 06:37:28;;;;;;;42.05;17.25;;;;;;;14.80;67.36;102061.16;4949165;28;120780;-79
2021/12/15 06:39:53;;;;;;;41.92;18.08;;;;;;;14.74;68.22;102053.47;4957033;28;120470;-79
2021/12/15 06:42:19;;;;;;;43.42;18.08;;;;;;;14.72;67.40;102055.91;4946263;28;119920;-79
2021/12/15 06:44:46;;;;;;;34.83;16.15;;;;;;;14.70;68.08;102046.50;4967422;28;120269;-79
2021/12/15 07:00:34;;;;;;;32.30;15.20;;;;;;;14.77;68.23;102057.31;4965735;28;120834;-80
2021/12/15 07:03:00;;;;;;;;;;;;;;;14.77;68.31;102073.88;4976165;28;119990;-79
2021/12/15 07:05:28;;;;;;;35.40;15.98;;;;;;;14.72;67.72;102047.59;4950816;28;122680;-80
2021/12/15 07:07:58;;;;;;;37.90;15.98;;;;;;;14.77;67.23;102056.53;4948194;28;121560;-79
2021/12/15 07:10:30;;;;;;;37.50;15.02;;;;;;;14.80;67.21;102077.75;4937911;28;122175;-79
2021/12/15 07:12:59;;;;;;;28.67;14.02;;;;;;;14.80;67.94;102066.69;4950237;28;122896;-79
2021/12/15 07:15:26;;;;;;;35.72;14.65;;;;;;;14.80;67.85;102061.16;4953061;28;119759;-79
2021/12/15 07:17:57;;;;;;;35.70;14.07;;;;;;;14.79;67.87;102065.16;4947877;28;120227;-79
2021/12/15 07:22:49;;;;;;;39.05;14.70;;;;;;;14.78;66.96;102052.56;4966806;28;120392;-80
2021/12/15 07:25:15;;;;;;;34.05;14.52;;;;;;;14.78;67.31;102053.34;4934559;28;122872;-79
2021/12/15 07:27:41;;;;;;;36.58;14.70;;;;;;;14.82;67.69;102058.72;4968303;28;121551;-79
2021/12/15 07:30:08;;;;;;;35.85;14.30;;;;;;;14.73;68.10;102051.91;4967650;28;120007;-79
2021/12/15 07:32:34;;;;;;;33.55;14.60;;;;;;;14.80;68.22;102061.16;4946818;28;120488;-80
2021/12/15 07:35:00;;;;;;;40.53;14.30;;;;;;;14.74;66.98;102053.47;4964279;28;120015;-79
2021/12/15 07:37:25;;;;;;;43.53;14.23;;;;;;;14.77;67.59;102060.06;4950662;28;121795;-79
2021/12/15 07:39:57;;;;;;;40.33;14.20;;;;;;;14.69;67.13;102054.03;4930491;28;123133;-80
2021/12/15 07:42:35;;;;;;;29.85;13.93;;;;;;;14.78;67.13;102063.59;4947251;28;119588;-79
2021/12/15 07:45:04;;;;;;;37.13;14.85;;;;;;;14.71;67.21;102059.09;4951089;28;122038;-79
2021/12/15 07:47:34;;;;;;;31.20;14.18;;;;;;;14.70;67.76;102058.34;4965659;28;120111;-79
2021/12/15 07:50:01;;;;;;;35.58;14.10;;;;;;;14.74;67.55;102069.25;4982325;28;122020;-79
2021/12/15 07:52:30;;;;;;;33.80;13.93;;;;;;;14.75;66.99;102076.31;4947744;28;119883;-79
2021/12/15 07:54:57;;;;;;;33.97;13.40;;;;;;;14.67;67.35;102081.31;4972410;28;119944;-80
2021/12/15 07:57:23;;;;;;;28.33;12.80;;;;;;;14.70;68.75;102080.44;4932111;28;120626;-80
2021/12/15 07:59:50;;;;;;;32.13;13.15;;;;;;;14.72;67.66;102091.81;4979075;28;122556;-79
2021/12/15 08:02:16;;;;;;;33.90;13.57;;;;;;;14.71;67.24;102101.31;4934735;28;120068;-79
2021/12/15 08:04:45;;;;;;;34.40;13.50;;;;;;;14.60;67.91;102092.56;4959543;28;120894;-78
2021/12/15 08:07:11;;;;;;;30.95;12.25;;;;;;;14.71;68.97;102104.06;4974492;28;121182;-79
2021/12/15 08:09:37;;;;;;;34.35;12.70;;;;;;;14.65;67.83;102094.00;4935936;28;122321;-79
2021/12/15 08:12:03;;;;;;;32.35;12.90;;;;;;;14.73;67.67;102096.09;4950161;28;122879;-79
2021/12/15 08:14:28;;;;;;;28.75;12.00;;;;;;;14.68;68.31;102088.38;4943603;28;120180;-78
2021/12/15 08:16:54;;;;;;;28.48;12.88;;;;;;;14.77;68.38;102095.97;4955971;28;122284;-79
2021/12/15 08:19:20;;;;;;;33.70;12.23;;;;;;;14.79;68.81;102092.78;4956166;28;122060;-79
2021/12/15 08:21:47;;;;;;;31.85;13.18;;;;;;;14.80;68.08;102099.84;4976837;28;122209;-79
2021/12/15 08:24:13;;;;;;;32.45;12.82;;;;;;;14.77;66.83;102098.75;4953850;28;121142;-79
2021/12/15 08:26:42;;;;;;;31.67;13.15;;;;;;;14.70;68.23;102088.72;4970274;28;119968;-79
2021/12/15 08:29:07;;;;;;;31.88;12.02;;;;;;;14.78;68.55;102091.22;4977234;28;120114;-79
2021/12/15 08:31:33;;;;;;;32.70;12.35;;;;;;;14.79;67.84;102098.31;4954128;28;122818;-80
2021/12/15 08:33:59;;;;;;;41.13;13.80;;;;;;;14.76;67.54;102093.66;4956370;28;119831;-79
2021/12/15 08:36:25;;;;;;;29.55;12.23;;;;;;;14.72;68.13;102097.31;4945913;28;122348;-79
2021/12/15 08:38:52;;;;;;;30.73;11.90;;;;;;;14.78;67.72;102102.28;4942034;28;123158;-79
2021/12/15 08:41:28;;;;;;;27.23;10.73;;;;;;;14.82;68.85;102111.22;4945447;28;120128;-80
2021/12/15 08:43:54;;;;;;;37.40;12.35;;;;;;;14.75;67.95;102098.44;4962436;28;121853;-79
2021/12/15 08:46:31;;;;;;;32.42;11.48;;;;;;;14.72;69.07;102097.31;4973335;28;123389;-79
2021/12/15 08:48:57;;;;;;;32.50;12.07;;;;;;;14.78;68.10;102110.56;4960471;28;120236;-80
2021/12/15 08:51:27;;;;;;;31.98;11.77;;;;;;;14.72;68.96;102110.38;4951125;28;122359;-79
2021/12/15 08:54:01;;;;;;;36.40;11.65;;;;;;;14.77;67.96;102118.09;4972778;28;120335;-80
2021/12/15 08:56:27;;;;;;;33.58;11.57;;;;;;;14.74;67.50;102122.50;4981385;28;121537;-80
2021/12/15 08:58:53;;;;;;;27.92;11.27;;;;;;;14.74;67.10;102116.22;4960028;28;122822;-79
2021/12/15 09:01:20;;;;;;;27.52;11.00;;;;;;;14.86;68.77;102133.97;4977923;28;122001;-80
2021/12/15 09:03:48;;;;;;;32.03;12.73;;;;;;;14.89;67.46;102122.03;4964202;28;120509;-79
2021/12/15 09:06:14;;;;;;;29.73;11.90;;;;;;;14.83;67.59;102121.81;4959778;28;123228;-79
2021/12/15 09:08:45;;;;;;;25.35;10.80;;;;;;;14.94;68.29;102124.25;4958814;28;120098;-79
2021/12/15 09:11:19;;;;;;;30.42;11.77;;;;;;;14.94;67.90;102138.84;4931709;28;122271;-79
2021/12/15 09:13:47;;;;;;;24.27;11.07;;;;;;;14.99;67.88;102140.25;4976111;28;123242;-79
2021/12/15 09:16:14;;;;;;;28.10;11.45;;;;;;;14.89;67.29;102116.50;4944520;28;121099;-79
2021/12/15 09:18:43;;;;;;;29.38;10.57;;;;;;;14.99;67.84;102132.75;4940273;28;123097;-80
2021/12/15 09:21:11;;;;;;;29.38;11.90;;;;;;;15.00;66.85;102136.28;4947129;28;120758;-79
2021/12/15 09:23:40;;;;;;;25.52;10.57;;;;;;;15.02;67.78;102126.31;4958194;28;122516;-79
2021/12/15 09:26:09;;;;;;;25.10;11.70;;;;;;;14.93;66.39;102133.75;4955575;28;121019;-79
2021/12/15 09:28:36;;;;;;;26.17;10.13;;;;;;;14.97;68.15;102126.13;4970382;28;120939;-80
2021/12/15 09:31:04;;;;;;;25.10;10.75;;;;;;;14.93;66.59;102119.94;4973700;28;121111;-79
2021/12/15 09:33:32;;;;;;;29.67;11.90;;;;;;;14.92;66.14;102124.69;4963762;28;122771;-80
2021/12/15 09:36:00;;;;;;;25.30;11.07;;;;;;;14.97;66.80;102145.47;4963687;28;119987;-79
2021/12/15 09:38:26;;;;;;;26.58;10.35;;;;;;;14.95;66.66;102153.44;4958342;28;123209;-79
2021/12/15 09:40:55;;;;;;;28.63;10.38;;;;;;;14.98;66.54;102147.00;4946174;28;121019;-79
2021/12/15 09:43:21;;;;;;;31.00;9.95;;;;;;;14.99;66.37;102141.03;4943092;28;122264;-79
2021/12/15 10:18:46;;;;;;;26.77;6.78;;;;;;;15.07;66.29;102138.03;4977023;28;119712;-79
2021/12/15 10:21:23;;;;;;;20.42;6.38;;;;;;;15.04;65.87;102142.44;4960330;28;120714;-79
2021/12/15 10:23:50;;;;;;;21.10;6.22;;;;;;;14.95;65.57;102128.56;4957281;28;120810;-79
2021/12/15 10:26:18;;;;;;;20.20;5.55;;;;;;;15.07;66.51;102135.25;4977873;28;121237;-78
2021/12/15 10:28:48;;;;;;;19.80;5.45;;;;;;;15.12;66.90;102132.69;4973702;28;121120;-79
2021/12/15 10:31:17;;;;;;;18.02;5.40;;;;;;;15.18;66.48;102130.94;4973914;28;120601;-78
2021/12/15 10:33:56;;;;;;;13.82;5.03;;;;;;;15.26;66.55;102136.97;4960289;28;120461;-79
2021/12/15 10:36:25;;;;;;;15.57;3.70;;;;;;;15.31;64.26;102133.63;4973671;28;122780;-79
2021/12/15 10:39:01;;;;;;;13.98;4.13;;;;;;;15.27;63.07;102131.00;4958346;28;119882;-79
2021/12/15 10:41:26;;;;;;;15.20;4.70;;;;;;;15.27;64.04;102131.00;4977669;28;120409;-79
2021/12/15 10:44:03;;;;;;;15.70;3.97;;;;;;;15.28;63.44;102134.53;4964128;28;120602;-79
2021/12/15 10:46:29;;;;;;;16.60;4.40;;;;;;;15.27;64.90;102131.00;4946199;28;124127;-79
2021/12/15 10:49:01;;;;;;;23.02;5.32;;;;;;;15.27;63.46;102127.47;4939934;28;122892;-79
2021/12/15 10:51:43;;;;;;;20.33;5.78;;;;;;;15.23;63.65;102135.09;4973408;28;121963;-79
2021/12/15 10:54:14;;;;;;;22.67;6.18;;;;;;;15.17;65.43;102143.22;4958859;28;122076;-80
2021/12/15 10:57:09;;;;;;;26.98;6.63;;;;;;;15.18;64.20;102138.44;4943823;28;122998;-80
2021/12/15 10:59:39;;;;;;;24.25;6.57;;;;;;;15.14;63.75;102140.53;4945088;28;119941;-79
2021/12/15 11:02:09;;;;;;;26.00;6.72;;;;;;;15.09;64.36;102122.53;4938595;28;122914;-79
2021/12/15 11:04:51;;;;;;;25.92;6.95;;;;;;;15.12;65.56;102137.44;4959835;28;122837;-79
2021/12/15 11:07:26;;;;;;;18.38;5.70;;;;;;;15.19;65.52;102134.47;4982373;28;120438;-79
2021/12/15 11:10:28;;;;;;;18.88;5.93;;;;;;;15.31;65.10;102134.41;4968212;28;120671;-79
2021/12/15 11:13:01;;;;;;;19.95;5.55;;;;;;;15.26;64.27;102126.69;4891260;28;121101;-79
2021/12/15 11:15:32;;;;;;;17.33;4.45;;;;;;;15.28;63.98;102132.53;4953133;28;122058;-79
2021/12/15 11:17:59;;;;;;;16.00;4.78;;;;;;;15.27;64.07;102153.09;4944789;28;120103;-79
2021/12/15 11:20:41;;;;;;;13.65;4.40;;;;;;;15.26;65.66;102159.09;4952063;28;121971;-79
2021/12/15 11:23:09;;;;;;;12.27;3.70;;;;;;;15.27;63.58;102152.34;4945317;28;122383;-80
2021/12/15 11:25:35;;;;;;;17.17;4.03;;;;;;;15.31;65.75;102156.53;4955765;28;121841;-79
2021/12/15 11:28:18;;;;;;;12.27;3.47;;;;;;;15.36;64.21;102163.47;4968403;28;121178;-79
2021/12/15 11:31:02;;;;;;;11.10;3.60;;;;;;;15.36;65.28;102147.66;4961331;28;121014;-78
2021/12/15 11:33:37;;;;;;;9.55;2.90;;;;;;;15.41;65.17;102149.09;4958579;28;120186;-79
2021/12/15 11:36:17;;;;;;;14.60;3.75;;;;;;;15.41;63.68;102148.31;4942046;28;122509;-80
2021/12/15 11:38:54;;;;;;;14.02;3.33;;;;;;;15.46;64.07;102147.75;4944745;28;122734;-80
2021/12/15 11:41:29;;;;;;;8.77;3.33;;;;;;;15.48;64.99;102159.91;4957687;28;120383;-82
2021/12/15 11:44:12;;;;;;;13.43;3.70;;;;;;;15.41;63.02;102146.31;4968482;28;122280;-83
2021/12/15 11:46:45;;;;;;;12.85;3.40;;;;;;;15.42;62.89;102153.41;4953754;28;122751;-81
2021/12/15 11:49:27;;;;;;;15.10;4.20;;;;;;;15.38;64.52;102154.72;4973646;28;120350;-80
2021/12/15 11:51:55;;;;;;;16.02;4.57;;;;;;;15.39;63.63;102146.00;4959660;28;121819;-79
2021/12/15 11:54:28;;;;;;;17.85;4.18;;;;;;;15.39;63.77;102146.00;4958233;28;123101;-79
2021/12/15 11:56:59;;;;;;;23.08;5.07;;;;;;;15.43;64.36;102145.88;4975425;28;119974;-79
2021/12/15 11:59:33;;;;;;;20.55;5.20;;;;;;;15.39;63.95;102151.53;4954513;28;123904;-79
2021/12/15 12:02:02;;;;;;;24.60;6.28;;;;;;;15.38;63.19;102140.91;4971869;28;119818;-80
2021/12/15 12:04:28;;;;;;;24.63;6.05;;;;;;;15.33;63.82;102137.50;4947271;28;122180;-80
2021/12/15 12:07:09;;;;;;;22.95;6.10;;;;;;;15.33;63.59;102143.03;4971845;28;120802;-79
2021/12/15 12:09:37;;;;;;;23.65;6.45;;;;;;;15.20;64.06;102128.50;4953682;28;120574;-79
2021/12/15 12:12:06;;;;;;;21.88;6.63;;;;;;;15.29;62.74;102125.78;4939106;28;123182;-79
2021/12/15 12:14:42;;;;;;;19.65;5.57;;;;;;;15.33;64.02;102133.94;4958625;28;123230;-80
2021/12/15 12:17:13;;;;;;;26.98;6.88;;;;;;;15.25;63.32;102122.38;4958078;28;120678;-78
2021/12/15 12:19:49;;;;;;;21.50;6.45;;;;;;;15.22;63.81;102131.56;4930868;28;123328;-79
2021/12/15 12:22:16;;;;;;;22.60;6.43;;;;;;;15.13;63.56;102114.88;4968663;28;121168;-79
2021/12/15 12:24:45;;;;;;;22.27;5.93;;;;;;;15.16;64.15;102122.31;4973862;28;120058;-81
2021/12/15 12:27:11;;;;;;;23.33;6.70;;;;;;;15.25;65.42;102125.16;4957844;28;124156;-79
2021/12/15 12:29:37;;;;;;;23.95;7.07;;;;;;;15.15;63.88;102112.47;4957312;28;121109;-79
2021/12/15 12:32:04;;;;;;;19.63;6.07;;;;;;;15.21;63.31;102129.25;4971333;28;121329;-79
2021/12/15 12:34:30;;;;;;;22.25;6.85;;;;;;;15.15;63.97;102115.25;4975331;28;122767;-79
2021/12/15 12:36:57;;;;;;;21.55;6.45;;;;;;;15.19;62.87;102118.66;4939910;28;120027;-80
2021/12/15 12:39:30;;;;;;;20.05;6.80;;;;;;;15.10;64.57;102103.97;4971931;28;120155;-80